This is the latest recevied weather packets stored in our database for station/object GW1573. If no packets are shown the sender has not sent any weather packets the latest 10 day(s).
| Time | Temp. | Humidity | Pressure | Rain* | Wind** | Luminosity | Snow |
|---|---|---|---|---|---|---|---|
| 1777161994 | 18.89° C | 69% | 1011.8 hPa | 1.02 mm | - | - | - |
| 1777161617 | 18.89° C | 66% | 1011.8 hPa | 1.02 mm | - | - | - |
| 1777160547 | 20° C | 63% | 1011.5 hPa | 1.02 mm | - | - | - |
| 1777160189 | 20° C | 63% | 1011.5 hPa | 1.02 mm | - | - | - |
| 1777158743 | 20.56° C | 61% | 1011.1 hPa | 1.02 mm | - | - | - |
| 1777157679 | 20.56° C | 61% | 1011.1 hPa | 1.02 mm | - | - | - |
| 1777150815 | 22.78° C | 55% | 1010.4 hPa | 1.02 mm | - | - | - |
| 1777149388 | 24.44° C | 54% | 1010.1 hPa | 1.02 mm | - | - | - |
| 1777149020 | 22.78° C | 57% | 1010.4 hPa | 1.02 mm | - | - | - |
| 1777148655 | 22.22° C | 62% | 1010.4 hPa | 1.02 mm | - | - | - |
| 1777147975 | 22.78° C | 62% | 1010.1 hPa | 1.02 mm | - | - | - |
| 1777147250 | 22.78° C | 60% | 1010.8 hPa | 1.02 mm | - | - | - |
| 1777145776 | 21.67° C | 64% | 1010.8 hPa | 1.02 mm | - | - | - |
| 1777143993 | 22.78° C | 64% | 1010.4 hPa | 1.02 mm | - | - | - |
| 1777143284 | 21.67° C | 68% | 1011.1 hPa | 1.02 mm | - | - | - |
| 1777142900 | 21.11° C | 66% | 1010.8 hPa | 1.02 mm | - | - | - |
| 1777140042 | 21.11° C | 68% | 1011.1 hPa | 1.02 mm | - | - | - |
| 1777138610 | 20.56° C | 71% | 1011.1 hPa | 1.02 mm | - | - | - |
| 1777132457 | 17.22° C | 94% | 1011.5 hPa | 1.02 mm | - | - | - |
| 1777132131 | 16.67° C | 94% | 1011.5 hPa | 1.02 mm | - | - | - |
| 1777131375 | 17.22° C | 95% | 1011.1 hPa | 1.02 mm | - | - | - |
| 1777129214 | 16.67° C | 93% | 1011.1 hPa | 0.51 mm | - | - | - |
| 1777128501 | 17.78° C | 90% | 1010.8 hPa | 0 mm | - | - | - |
| 1777127450 | 19.44° C | 80% | 1010.4 hPa | 0 mm | - | - | - |
| 1777123843 | 16.67° C | 92% | 1010.8 hPa | 0 mm | - | - | - |
* Rain since midnight (hover to see other rain measurements)
** Current wind speed in m/s (hover to see current wind gust speed)